Terminal Aerodrome Forecast
Issued by NWS

Home | Current Version | Previous Version | Text Only | Print | Product List | Glossary On
Versions: 1 2 3 4 5 6 7 8 9 10 11 12 13
000
FTUS42 KTAE 290532
TAFVLD
TAF
KVLD 290532Z 2906/3006 VRB02KT P6SM SCT120 OVC250
     FM291300 08004KT P6SM SCT020 BKN250
     FM291800 07006KT P6SM SHRA VCTS BKN030CB
      TEMPO 2919/2923 1SM +TSRA
     FM300300 VRB03KT P6SM BKN250=

USA.gov is the U.S. government's official web portal to all federal, state and local government web resources and services.